PFY213 YSSY-YDLQ
Flight info
| Callsign | PFY213 |
|---|---|
| Flight time | 1h 9m |
| Altitude | 20000 |
| Route | 3356S15110E DCT TESAT V169 EXETA W10 WG W497 MAKIV |
| Aircraft | PC24/L-SDFGRWY/S |
Departure
| Time | 2026-04-18 04:28 |
|---|---|
| Airport | Sydney Kingsford Smith International Airport (YSSY) |
Arrival
| Time | 2026-04-18 05:38 |
|---|---|
| Airport | Deniliquin Airport (YDLQ) |
| Time | Latitude | Longitude | Altitude | Speed | Heading |
|---|---|---|---|---|---|
| 2026-04-18 04:09 | -33.93355 | 151.18828 | 26 ft | 0 kts | 9° |
| 2026-04-18 04:23 | -33.93351 | 151.18825 | 26 ft | 2 kts | 310° |
| 2026-04-18 04:23 | -33.93379 | 151.18819 | 28 ft | 9 kts | 138° |
| 2026-04-18 04:23 | -33.93450 | 151.18866 | 26 ft | 19 kts | 194° |
| 2026-04-18 04:23 | -33.93583 | 151.18827 | 27 ft | 21 kts | 219° |
| 2026-04-18 04:24 | -33.93646 | 151.18601 | 25 ft | 31 kts | 253° |
| 2026-04-18 04:24 | -33.93702 | 151.18360 | 26 ft | 28 kts | 254° |
| 2026-04-18 04:24 | -33.93753 | 151.18146 | 29 ft | 25 kts | 253° |
| 2026-04-18 04:24 | -33.93799 | 151.17952 | 27 ft | 23 kts | 253° |
| 2026-04-18 04:25 | -33.93841 | 151.17773 | 27 ft | 22 kts | 253° |
| 2026-04-18 04:25 | -33.93848 | 151.17599 | 26 ft | 23 kts | 330° |
| 2026-04-18 04:25 | -33.93684 | 151.17554 | 24 ft | 26 kts | 347° |
| 2026-04-18 04:25 | -33.93509 | 151.17509 | 26 ft | 25 kts | 348° |
| 2026-04-18 04:26 | -33.93335 | 151.17492 | 25 ft | 28 kts | 347° |
| 2026-04-18 04:26 | -33.93128 | 151.17437 | 26 ft | 31 kts | 348° |
| 2026-04-18 04:26 | -33.92967 | 151.17355 | 26 ft | 15 kts | 289° |
| 2026-04-18 04:26 | -33.92958 | 151.17302 | 26 ft | 0 kts | 280° |
| 2026-04-18 04:27 | -33.92957 | 151.17297 | 26 ft | 7 kts | 279° |
| 2026-04-18 04:28 | -33.93080 | 151.17200 | 26 ft | 52 kts | 168° |
| 2026-04-18 04:28 | -33.93726 | 151.17364 | 33 ft | 134 kts | 168° |
| 2026-04-18 04:28 | -33.94737 | 151.17627 | 695 ft | 165 kts | 169° |
| 2026-04-18 04:28 | -33.95851 | 151.17807 | 1557 ft | 145 kts | 191° |
| 2026-04-18 04:29 | -33.96570 | 151.17173 | 2241 ft | 128 kts | 224° |
| 2026-04-18 04:29 | -33.97257 | 151.16304 | 2921 ft | 164 kts | 222° |
| 2026-04-18 04:29 | -33.98144 | 151.15204 | 3260 ft | 203 kts | 223° |
| 2026-04-18 04:29 | -33.99223 | 151.13871 | 3221 ft | 230 kts | 223° |
| 2026-04-18 04:30 | -34.00352 | 151.12490 | 4105 ft | 224 kts | 223° |
| 2026-04-18 04:30 | -34.01381 | 151.11253 | 4923 ft | 204 kts | 223° |
| 2026-04-18 04:30 | -34.02378 | 151.10078 | 5661 ft | 196 kts | 223° |
| 2026-04-18 04:30 | -34.03341 | 151.08952 | 6361 ft | 192 kts | 223° |
| 2026-04-18 04:31 | -34.04313 | 151.07830 | 7052 ft | 195 kts | 223° |
| 2026-04-18 04:31 | -34.05302 | 151.06692 | 7757 ft | 194 kts | 223° |
| 2026-04-18 04:31 | -34.06280 | 151.05570 | 8454 ft | 197 kts | 223° |
| 2026-04-18 04:31 | -34.07277 | 151.04422 | 9209 ft | 198 kts | 223° |
| 2026-04-18 04:32 | -34.08270 | 151.03274 | 9976 ft | 200 kts | 223° |
| 2026-04-18 04:32 | -34.09280 | 151.02105 | 10686 ft | 200 kts | 223° |
| 2026-04-18 04:32 | -34.10289 | 151.00942 | 11388 ft | 203 kts | 223° |
| 2026-04-18 04:32 | -34.11321 | 150.99760 | 12146 ft | 204 kts | 223° |
| 2026-04-18 04:33 | -34.12342 | 150.98594 | 12900 ft | 206 kts | 223° |
| 2026-04-18 04:33 | -34.13279 | 150.97528 | 13621 ft | 208 kts | 223° |
| 2026-04-18 04:33 | -34.14326 | 150.96333 | 14365 ft | 209 kts | 223° |
| 2026-04-18 04:33 | -34.15389 | 150.95122 | 15112 ft | 213 kts | 223° |
| 2026-04-18 04:34 | -34.16483 | 150.93895 | 15894 ft | 214 kts | 223° |
| 2026-04-18 04:34 | -34.17587 | 150.92665 | 16700 ft | 216 kts | 223° |
| 2026-04-18 04:34 | -34.18692 | 150.91442 | 17525 ft | 218 kts | 223° |
| 2026-04-18 04:34 | -34.19807 | 150.90212 | 18375 ft | 220 kts | 223° |
| 2026-04-18 04:35 | -34.20961 | 150.88955 | 19163 ft | 223 kts | 223° |
| 2026-04-18 04:35 | -34.22134 | 150.87682 | 19799 ft | 235 kts | 223° |
| 2026-04-18 04:35 | -34.23427 | 150.86281 | 19989 ft | 265 kts | 223° |
| 2026-04-18 04:35 | -34.24874 | 150.84710 | 19998 ft | 297 kts | 223° |
| 2026-04-18 04:36 | -34.26484 | 150.82958 | 20005 ft | 320 kts | 223° |
| 2026-04-18 04:36 | -34.28147 | 150.81137 | 19991 ft | 329 kts | 223° |
| 2026-04-18 04:36 | -34.29864 | 150.79252 | 19987 ft | 331 kts | 223° |
| 2026-04-18 04:36 | -34.31549 | 150.77400 | 19990 ft | 331 kts | 223° |
| 2026-04-18 04:37 | -34.33260 | 150.75514 | 19988 ft | 332 kts | 223° |
| 2026-04-18 04:37 | -34.34975 | 150.73627 | 19972 ft | 333 kts | 223° |
| 2026-04-18 04:37 | -34.36680 | 150.71757 | 19973 ft | 334 kts | 223° |
| 2026-04-18 04:37 | -34.38390 | 150.69872 | 19979 ft | 334 kts | 223° |
| 2026-04-18 04:38 | -34.40093 | 150.67944 | 19969 ft | 333 kts | 227° |
| 2026-04-18 04:38 | -34.41439 | 150.65677 | 19975 ft | 334 kts | 237° |
| 2026-04-18 04:38 | -34.42626 | 150.63228 | 19975 ft | 336 kts | 238° |
| 2026-04-18 04:38 | -34.43856 | 150.60866 | 19983 ft | 333 kts | 234° |
| 2026-04-18 04:39 | -34.45258 | 150.58627 | 19978 ft | 331 kts | 231° |
| 2026-04-18 04:39 | -34.46688 | 150.56407 | 19979 ft | 333 kts | 232° |
| 2026-04-18 04:39 | -34.48032 | 150.54164 | 19980 ft | 331 kts | 233° |
| 2026-04-18 04:39 | -34.49377 | 150.51882 | 19976 ft | 332 kts | 233° |
| 2026-04-18 04:40 | -34.50737 | 150.49634 | 19979 ft | 332 kts | 232° |
| 2026-04-18 04:40 | -34.52120 | 150.47361 | 19980 ft | 333 kts | 232° |
| 2026-04-18 04:40 | -34.53475 | 150.45114 | 19973 ft | 334 kts | 233° |
| 2026-04-18 04:40 | -34.54855 | 150.42815 | 19971 ft | 336 kts | 233° |
| 2026-04-18 04:41 | -34.56235 | 150.40526 | 19972 ft | 334 kts | 233° |
| 2026-04-18 04:41 | -34.57590 | 150.38276 | 19966 ft | 333 kts | 233° |
| 2026-04-18 04:41 | -34.58954 | 150.36008 | 19967 ft | 334 kts | 233° |
| 2026-04-18 04:41 | -34.60327 | 150.33722 | 19968 ft | 335 kts | 233° |
| 2026-04-18 04:42 | -34.61692 | 150.31452 | 19967 ft | 336 kts | 233° |
| 2026-04-18 04:42 | -34.62988 | 150.29075 | 19965 ft | 336 kts | 239° |
| 2026-04-18 04:42 | -34.63966 | 150.26515 | 19966 ft | 337 kts | 246° |
| 2026-04-18 04:42 | -34.64640 | 150.23769 | 19965 ft | 338 kts | 254° |
| 2026-04-18 04:43 | -34.65073 | 150.20967 | 19967 ft | 340 kts | 256° |
| 2026-04-18 04:43 | -34.65520 | 150.18160 | 19969 ft | 341 kts | 255° |
| 2026-04-18 04:43 | -34.65973 | 150.15320 | 19966 ft | 341 kts | 256° |
| 2026-04-18 04:43 | -34.66420 | 150.12458 | 19966 ft | 343 kts | 256° |
| 2026-04-18 04:44 | -34.66857 | 150.09632 | 19967 ft | 341 kts | 256° |
| 2026-04-18 04:44 | -34.67294 | 150.06836 | 20079 ft | 340 kts | 256° |
| 2026-04-18 04:44 | -34.67743 | 150.03978 | 20102 ft | 344 kts | 256° |
| 2026-04-18 04:44 | -34.68180 | 150.01150 | 20103 ft | 341 kts | 256° |
| 2026-04-18 04:45 | -34.68621 | 149.98307 | 20099 ft | 341 kts | 256° |
| 2026-04-18 04:45 | -34.69063 | 149.95466 | 20101 ft | 341 kts | 256° |
| 2026-04-18 04:45 | -34.69500 | 149.92650 | 20113 ft | 342 kts | 256° |
| 2026-04-18 04:45 | -34.69938 | 149.89805 | 20117 ft | 342 kts | 256° |
| 2026-04-18 04:46 | -34.70373 | 149.86985 | 20105 ft | 341 kts | 256° |
| 2026-04-18 04:46 | -34.70808 | 149.84166 | 20105 ft | 341 kts | 256° |
| 2026-04-18 04:46 | -34.71247 | 149.81316 | 20105 ft | 340 kts | 256° |
| 2026-04-18 04:46 | -34.71683 | 149.78477 | 20106 ft | 341 kts | 256° |
| 2026-04-18 04:47 | -34.72115 | 149.75662 | 20108 ft | 343 kts | 256° |
| 2026-04-18 04:47 | -34.72554 | 149.72789 | 20103 ft | 343 kts | 256° |
| 2026-04-18 04:47 | -34.72989 | 149.69950 | 20112 ft | 342 kts | 256° |
| 2026-04-18 04:47 | -34.73422 | 149.67105 | 20111 ft | 341 kts | 256° |
| 2026-04-18 04:48 | -34.73851 | 149.64290 | 20110 ft | 341 kts | 256° |
| 2026-04-18 04:48 | -34.74283 | 149.61452 | 20114 ft | 342 kts | 256° |
| 2026-04-18 04:48 | -34.74713 | 149.58620 | 20115 ft | 343 kts | 256° |
| 2026-04-18 04:48 | -34.75150 | 149.55740 | 20114 ft | 345 kts | 256° |
| 2026-04-18 04:49 | -34.75579 | 149.52904 | 20112 ft | 343 kts | 256° |
| 2026-04-18 04:49 | -34.76013 | 149.50026 | 20110 ft | 342 kts | 256° |
| 2026-04-18 04:49 | -34.76439 | 149.47207 | 20113 ft | 342 kts | 256° |
| 2026-04-18 04:49 | -34.76870 | 149.44349 | 20112 ft | 342 kts | 256° |
| 2026-04-18 04:50 | -34.77299 | 149.41489 | 20115 ft | 343 kts | 256° |
| 2026-04-18 04:50 | -34.77724 | 149.38670 | 20128 ft | 343 kts | 256° |
| 2026-04-18 04:50 | -34.78154 | 149.35791 | 20131 ft | 344 kts | 256° |
| 2026-04-18 04:50 | -34.78586 | 149.32915 | 20131 ft | 345 kts | 256° |
| 2026-04-18 04:51 | -34.79009 | 149.30073 | 20130 ft | 345 kts | 256° |
| 2026-04-18 04:51 | -34.79438 | 149.27197 | 20130 ft | 344 kts | 256° |
| 2026-04-18 04:51 | -34.79864 | 149.24332 | 20131 ft | 343 kts | 256° |
| 2026-04-18 04:51 | -34.80284 | 149.21509 | 20131 ft | 341 kts | 256° |
| 2026-04-18 04:52 | -34.80710 | 149.18646 | 20132 ft | 342 kts | 256° |
| 2026-04-18 04:52 | -34.81135 | 149.15773 | 20132 ft | 344 kts | 256° |
| 2026-04-18 04:52 | -34.81556 | 149.12923 | 20134 ft | 345 kts | 256° |
| 2026-04-18 04:52 | -34.81976 | 149.10076 | 20134 ft | 342 kts | 256° |
| 2026-04-18 04:53 | -34.82395 | 149.07232 | 20128 ft | 343 kts | 256° |
| 2026-04-18 04:53 | -34.82826 | 149.04353 | 20126 ft | 343 kts | 255° |
| 2026-04-18 04:53 | -34.83434 | 149.01568 | 20118 ft | 344 kts | 251° |
| 2026-04-18 04:53 | -34.84069 | 148.98730 | 20119 ft | 343 kts | 252° |
| 2026-04-18 04:54 | -34.84668 | 148.95941 | 20123 ft | 342 kts | 252° |
| 2026-04-18 04:54 | -34.85286 | 148.93137 | 20122 ft | 342 kts | 252° |
| 2026-04-18 04:54 | -34.85907 | 148.90346 | 20130 ft | 343 kts | 251° |
| 2026-04-18 04:54 | -34.86532 | 148.87519 | 20128 ft | 343 kts | 252° |
| 2026-04-18 04:55 | -34.87142 | 148.84736 | 20131 ft | 343 kts | 252° |
| 2026-04-18 04:55 | -34.87755 | 148.81947 | 20132 ft | 343 kts | 252° |
| 2026-04-18 04:55 | -34.88375 | 148.79122 | 20133 ft | 344 kts | 252° |
| 2026-04-18 04:56 | -34.89607 | 148.73506 | 20120 ft | 345 kts | 252° |
| 2026-04-18 04:56 | -34.90227 | 148.70676 | 20120 ft | 346 kts | 252° |
| 2026-04-18 04:56 | -34.90847 | 148.67831 | 20124 ft | 345 kts | 252° |
| 2026-04-18 04:56 | -34.91459 | 148.65033 | 20123 ft | 344 kts | 252° |
| 2026-04-18 04:57 | -34.92077 | 148.62195 | 20125 ft | 343 kts | 252° |
| 2026-04-18 04:57 | -34.92685 | 148.59406 | 20121 ft | 345 kts | 252° |
| 2026-04-18 04:57 | -34.93303 | 148.56565 | 20124 ft | 345 kts | 252° |
| 2026-04-18 04:57 | -34.93911 | 148.53769 | 20125 ft | 345 kts | 252° |
| 2026-04-18 04:58 | -34.94527 | 148.50922 | 20124 ft | 346 kts | 252° |
| 2026-04-18 04:58 | -34.95141 | 148.48082 | 20124 ft | 345 kts | 252° |
| 2026-04-18 04:58 | -34.95755 | 148.45251 | 20126 ft | 345 kts | 252° |
| 2026-04-18 04:58 | -34.96370 | 148.42412 | 20128 ft | 347 kts | 252° |
| 2026-04-18 04:59 | -34.96975 | 148.39608 | 20128 ft | 346 kts | 252° |
| 2026-04-18 04:59 | -34.97587 | 148.36760 | 20128 ft | 346 kts | 252° |
| 2026-04-18 04:59 | -34.98203 | 148.33905 | 20132 ft | 347 kts | 252° |
| 2026-04-18 04:59 | -34.98810 | 148.31084 | 20133 ft | 346 kts | 252° |
| 2026-04-18 05:00 | -34.99215 | 148.29193 | 20130 ft | 346 kts | 252° |
| 2026-04-18 05:00 | -35.00028 | 148.25425 | 20134 ft | 345 kts | 252° |
| 2026-04-18 05:00 | -35.00635 | 148.22577 | 20133 ft | 346 kts | 252° |
| 2026-04-18 05:00 | -35.01241 | 148.19747 | 20120 ft | 347 kts | 252° |
| 2026-04-18 05:01 | -35.01849 | 148.16905 | 20130 ft | 348 kts | 252° |
| 2026-04-18 05:01 | -35.02264 | 148.14961 | 20132 ft | 349 kts | 252° |
| 2026-04-18 05:01 | -35.02866 | 148.12136 | 20133 ft | 347 kts | 252° |
| 2026-04-18 05:01 | -35.03672 | 148.08352 | 20135 ft | 346 kts | 252° |
| 2026-04-18 05:02 | -35.04279 | 148.05497 | 20136 ft | 347 kts | 252° |
| 2026-04-18 05:02 | -35.04681 | 148.03606 | 20147 ft | 347 kts | 252° |
| 2026-04-18 05:02 | -35.05291 | 148.00734 | 20141 ft | 348 kts | 252° |
| 2026-04-18 05:02 | -35.05893 | 147.97894 | 20139 ft | 346 kts | 252° |
| 2026-04-18 05:03 | -35.06495 | 147.95052 | 20132 ft | 345 kts | 252° |
| 2026-04-18 05:03 | -35.07093 | 147.92226 | 20125 ft | 347 kts | 252° |
| 2026-04-18 05:03 | -35.07701 | 147.89354 | 20137 ft | 350 kts | 252° |
| 2026-04-18 05:03 | -35.08306 | 147.86479 | 20137 ft | 347 kts | 252° |
| 2026-04-18 05:04 | -35.08902 | 147.83644 | 20136 ft | 348 kts | 252° |
| 2026-04-18 05:04 | -35.09509 | 147.80766 | 20144 ft | 349 kts | 252° |
| 2026-04-18 05:04 | -35.10107 | 147.77921 | 20144 ft | 348 kts | 252° |
| 2026-04-18 05:04 | -35.10713 | 147.75030 | 20143 ft | 348 kts | 252° |
| 2026-04-18 05:05 | -35.11311 | 147.72178 | 20142 ft | 350 kts | 252° |
| 2026-04-18 05:05 | -35.11916 | 147.69288 | 20143 ft | 348 kts | 252° |
| 2026-04-18 05:05 | -35.12509 | 147.66456 | 20142 ft | 348 kts | 252° |
| 2026-04-18 05:05 | -35.13109 | 147.63577 | 20142 ft | 347 kts | 252° |
| 2026-04-18 05:06 | -35.13709 | 147.60706 | 20150 ft | 348 kts | 252° |
| 2026-04-18 05:06 | -35.14299 | 147.57865 | 20154 ft | 349 kts | 253° |
| 2026-04-18 05:06 | -35.14902 | 147.54973 | 20154 ft | 350 kts | 253° |
| 2026-04-18 05:06 | -35.15497 | 147.52108 | 20155 ft | 350 kts | 253° |
| 2026-04-18 05:07 | -35.16092 | 147.49234 | 20155 ft | 350 kts | 253° |
| 2026-04-18 05:07 | -35.16676 | 147.46344 | 20155 ft | 348 kts | 255° |
| 2026-04-18 05:07 | -35.17149 | 147.43425 | 20155 ft | 350 kts | 256° |
| 2026-04-18 05:07 | -35.17617 | 147.40530 | 20156 ft | 351 kts | 255° |
| 2026-04-18 05:08 | -35.18101 | 147.37599 | 20145 ft | 351 kts | 255° |
| 2026-04-18 05:08 | -35.18586 | 147.34657 | 20148 ft | 350 kts | 256° |
| 2026-04-18 05:08 | -35.19059 | 147.31761 | 20147 ft | 350 kts | 256° |
| 2026-04-18 05:08 | -35.19536 | 147.28830 | 20149 ft | 350 kts | 256° |
| 2026-04-18 05:09 | -35.20012 | 147.25901 | 20150 ft | 351 kts | 256° |
| 2026-04-18 05:09 | -35.20483 | 147.23010 | 20149 ft | 351 kts | 256° |
| 2026-04-18 05:09 | -35.20959 | 147.20072 | 20149 ft | 351 kts | 256° |
| 2026-04-18 05:09 | -35.21436 | 147.17138 | 20149 ft | 350 kts | 256° |
| 2026-04-18 05:10 | -35.21906 | 147.14224 | 20161 ft | 350 kts | 256° |
| 2026-04-18 05:10 | -35.22375 | 147.11323 | 20161 ft | 351 kts | 255° |
| 2026-04-18 05:10 | -35.22850 | 147.08382 | 20155 ft | 351 kts | 256° |
| 2026-04-18 05:10 | -35.23318 | 147.05474 | 20157 ft | 351 kts | 256° |
| 2026-04-18 05:11 | -35.23792 | 147.02531 | 20155 ft | 351 kts | 256° |
| 2026-04-18 05:11 | -35.24257 | 146.99631 | 20155 ft | 351 kts | 256° |
| 2026-04-18 05:11 | -35.24730 | 146.96681 | 20147 ft | 349 kts | 256° |
| 2026-04-18 05:11 | -35.25182 | 146.93833 | 18929 ft | 339 kts | 256° |
| 2026-04-18 05:12 | -35.25638 | 146.91004 | 17448 ft | 340 kts | 255° |
| 2026-04-18 05:12 | -35.26081 | 146.88210 | 16170 ft | 332 kts | 256° |
| 2026-04-18 05:12 | -35.26516 | 146.85479 | 14911 ft | 325 kts | 255° |
| 2026-04-18 05:12 | -35.26945 | 146.82780 | 13634 ft | 319 kts | 256° |
| 2026-04-18 05:13 | -35.27366 | 146.80142 | 12292 ft | 315 kts | 256° |
| 2026-04-18 05:13 | -35.27784 | 146.77507 | 11007 ft | 312 kts | 256° |
| 2026-04-18 05:13 | -35.28184 | 146.74963 | 10249 ft | 299 kts | 257° |
| 2026-04-18 05:13 | -35.28583 | 146.72449 | 10166 ft | 302 kts | 256° |
| 2026-04-18 05:14 | -35.28962 | 146.70042 | 10165 ft | 281 kts | 256° |
| 2026-04-18 05:14 | -35.29328 | 146.67718 | 10157 ft | 276 kts | 256° |
| 2026-04-18 05:14 | -35.29694 | 146.65408 | 10158 ft | 276 kts | 256° |
| 2026-04-18 05:14 | -35.30055 | 146.63116 | 10156 ft | 276 kts | 256° |
| 2026-04-18 05:15 | -35.30418 | 146.60797 | 10163 ft | 275 kts | 256° |
| 2026-04-18 05:15 | -35.30779 | 146.58503 | 10162 ft | 276 kts | 256° |
| 2026-04-18 05:15 | -35.31142 | 146.56176 | 10163 ft | 277 kts | 256° |
| 2026-04-18 05:15 | -35.31503 | 146.53877 | 10164 ft | 278 kts | 256° |
| 2026-04-18 05:16 | -35.31865 | 146.51559 | 10164 ft | 276 kts | 256° |
| 2026-04-18 05:16 | -35.32226 | 146.49245 | 10162 ft | 276 kts | 256° |
| 2026-04-18 05:16 | -35.32581 | 146.46963 | 10163 ft | 276 kts | 256° |
| 2026-04-18 05:16 | -35.32944 | 146.44632 | 10164 ft | 278 kts | 256° |
| 2026-04-18 05:17 | -35.33306 | 146.42305 | 10164 ft | 277 kts | 256° |
| 2026-04-18 05:17 | -35.33664 | 146.39992 | 10163 ft | 276 kts | 256° |
| 2026-04-18 05:17 | -35.34019 | 146.37705 | 10163 ft | 276 kts | 256° |
| 2026-04-18 05:17 | -35.34380 | 146.35380 | 10163 ft | 277 kts | 256° |
| 2026-04-18 05:18 | -35.34735 | 146.33081 | 10165 ft | 279 kts | 256° |
| 2026-04-18 05:18 | -35.35097 | 146.30741 | 10157 ft | 278 kts | 256° |
| 2026-04-18 05:18 | -35.35455 | 146.28401 | 10165 ft | 279 kts | 256° |
| 2026-04-18 05:18 | -35.35814 | 146.26078 | 10165 ft | 279 kts | 256° |
| 2026-04-18 05:19 | -35.36170 | 146.23762 | 10167 ft | 277 kts | 256° |
| 2026-04-18 05:19 | -35.36528 | 146.21434 | 10166 ft | 276 kts | 256° |
| 2026-04-18 05:19 | -35.36884 | 146.19120 | 10166 ft | 278 kts | 256° |
| 2026-04-18 05:19 | -35.37230 | 146.16840 | 9752 ft | 268 kts | 256° |
| 2026-04-18 05:20 | -35.37582 | 146.14556 | 8718 ft | 271 kts | 257° |
| 2026-04-18 05:20 | -35.37927 | 146.12292 | 7847 ft | 269 kts | 257° |
| 2026-04-18 05:20 | -35.38266 | 146.10073 | 7009 ft | 266 kts | 257° |
| 2026-04-18 05:20 | -35.38604 | 146.07849 | 6303 ft | 260 kts | 257° |
| 2026-04-18 05:21 | -35.38933 | 146.05689 | 5935 ft | 258 kts | 257° |
| 2026-04-18 05:21 | -35.39268 | 146.03495 | 5934 ft | 265 kts | 257° |
| 2026-04-18 05:21 | -35.39601 | 146.01300 | 5937 ft | 266 kts | 257° |
| 2026-04-18 05:21 | -35.39942 | 145.99051 | 5937 ft | 268 kts | 257° |
| 2026-04-18 05:22 | -35.40280 | 145.96811 | 5937 ft | 268 kts | 257° |
| 2026-04-18 05:22 | -35.40622 | 145.94546 | 5941 ft | 268 kts | 257° |
| 2026-04-18 05:22 | -35.40960 | 145.92312 | 5937 ft | 269 kts | 257° |
| 2026-04-18 05:22 | -35.41304 | 145.90038 | 5938 ft | 269 kts | 257° |
| 2026-04-18 05:23 | -35.41644 | 145.87778 | 5935 ft | 269 kts | 257° |
| 2026-04-18 05:23 | -35.41981 | 145.85530 | 5935 ft | 269 kts | 257° |
| 2026-04-18 05:23 | -35.42317 | 145.83292 | 5934 ft | 269 kts | 257° |
| 2026-04-18 05:23 | -35.42659 | 145.81021 | 5935 ft | 269 kts | 257° |
| 2026-04-18 05:24 | -35.42998 | 145.78752 | 5937 ft | 269 kts | 257° |
| 2026-04-18 05:24 | -35.43333 | 145.76515 | 5935 ft | 269 kts | 257° |
| 2026-04-18 05:24 | -35.43671 | 145.74260 | 5933 ft | 269 kts | 257° |
| 2026-04-18 05:24 | -35.44008 | 145.71993 | 5932 ft | 269 kts | 257° |
| 2026-04-18 05:25 | -35.44340 | 145.69761 | 5934 ft | 268 kts | 257° |
| 2026-04-18 05:25 | -35.44678 | 145.67497 | 5935 ft | 270 kts | 257° |
| 2026-04-18 05:25 | -35.45011 | 145.65254 | 5856 ft | 270 kts | 258° |
| 2026-04-18 05:25 | -35.45356 | 145.62940 | 5128 ft | 273 kts | 257° |
| 2026-04-18 05:26 | -35.45691 | 145.60660 | 4365 ft | 267 kts | 256° |
| 2026-04-18 05:26 | -35.46015 | 145.58463 | 3614 ft | 261 kts | 256° |
| 2026-04-18 05:26 | -35.46336 | 145.56304 | 3053 ft | 252 kts | 257° |
| 2026-04-18 05:26 | -35.46643 | 145.54227 | 2938 ft | 249 kts | 256° |
| 2026-04-18 05:27 | -35.46951 | 145.52145 | 2934 ft | 240 kts | 257° |
| 2026-04-18 05:27 | -35.47233 | 145.50203 | 2928 ft | 225 kts | 256° |
| 2026-04-18 05:27 | -35.47288 | 145.48329 | 2920 ft | 222 kts | 274° |
| 2026-04-18 05:27 | -35.47049 | 145.46456 | 2929 ft | 222 kts | 276° |
| 2026-04-18 05:28 | -35.46829 | 145.44584 | 2929 ft | 223 kts | 272° |
| 2026-04-18 05:28 | -35.46690 | 145.42724 | 2935 ft | 216 kts | 271° |
| 2026-04-18 05:28 | -35.46576 | 145.40994 | 2936 ft | 195 kts | 270° |
| 2026-04-18 05:28 | -35.46463 | 145.39342 | 2927 ft | 198 kts | 270° |
| 2026-04-18 05:29 | -35.46343 | 145.37656 | 2933 ft | 197 kts | 271° |
| 2026-04-18 05:29 | -35.46220 | 145.36005 | 2926 ft | 187 kts | 270° |
| 2026-04-18 05:29 | -35.46108 | 145.34475 | 2926 ft | 179 kts | 270° |
| 2026-04-18 05:29 | -35.46001 | 145.32960 | 2928 ft | 177 kts | 270° |
| 2026-04-18 05:30 | -35.45893 | 145.31457 | 2927 ft | 176 kts | 270° |
| 2026-04-18 05:30 | -35.45785 | 145.29981 | 2930 ft | 175 kts | 269° |
| 2026-04-18 05:30 | -35.45678 | 145.28487 | 2929 ft | 175 kts | 270° |
| 2026-04-18 05:30 | -35.45570 | 145.27018 | 2930 ft | 175 kts | 270° |
| 2026-04-18 05:31 | -35.45463 | 145.25543 | 2931 ft | 177 kts | 270° |
| 2026-04-18 05:31 | -35.45396 | 145.24076 | 2926 ft | 172 kts | 260° |
| 2026-04-18 05:31 | -35.45688 | 145.22722 | 2669 ft | 157 kts | 243° |
| 2026-04-18 05:31 | -35.46152 | 145.21498 | 2094 ft | 160 kts | 242° |
| 2026-04-18 05:32 | -35.46592 | 145.20289 | 2038 ft | 158 kts | 243° |
| 2026-04-18 05:32 | -35.47057 | 145.19015 | 2041 ft | 153 kts | 243° |
| 2026-04-18 05:32 | -35.47481 | 145.17845 | 2031 ft | 151 kts | 242° |
| 2026-04-18 05:32 | -35.47904 | 145.16682 | 2033 ft | 145 kts | 240° |
| 2026-04-18 05:33 | -35.48323 | 145.15530 | 2038 ft | 148 kts | 240° |
| 2026-04-18 05:33 | -35.48733 | 145.14402 | 2029 ft | 143 kts | 240° |
| 2026-04-18 05:33 | -35.49141 | 145.13280 | 2040 ft | 145 kts | 240° |
| 2026-04-18 05:33 | -35.49553 | 145.12150 | 2047 ft | 147 kts | 243° |
| 2026-04-18 05:34 | -35.49965 | 145.11008 | 2044 ft | 143 kts | 242° |
| 2026-04-18 05:34 | -35.50373 | 145.09881 | 2034 ft | 147 kts | 241° |
| 2026-04-18 05:34 | -35.50765 | 145.08800 | 1918 ft | 133 kts | 242° |
| 2026-04-18 05:34 | -35.51148 | 145.07752 | 1996 ft | 136 kts | 242° |
| 2026-04-18 05:35 | -35.51532 | 145.06684 | 2004 ft | 141 kts | 241° |
| 2026-04-18 05:35 | -35.51934 | 145.05580 | 1996 ft | 143 kts | 243° |
| 2026-04-18 05:35 | -35.52341 | 145.04453 | 1844 ft | 145 kts | 243° |
| 2026-04-18 05:35 | -35.52751 | 145.03315 | 1656 ft | 145 kts | 240° |
| 2026-04-18 05:36 | -35.53160 | 145.02189 | 1460 ft | 145 kts | 242° |
| 2026-04-18 05:36 | -35.53567 | 145.01062 | 1271 ft | 145 kts | 242° |
| 2026-04-18 05:36 | -35.53978 | 144.99924 | 1079 ft | 144 kts | 244° |
| 2026-04-18 05:36 | -35.54386 | 144.98795 | 905 ft | 146 kts | 243° |
| 2026-04-18 05:37 | -35.54779 | 144.97668 | 775 ft | 144 kts | 243° |
| 2026-04-18 05:37 | -35.55144 | 144.96661 | 596 ft | 116 kts | 240° |
| 2026-04-18 05:37 | -35.55464 | 144.95810 | 408 ft | 108 kts | 243° |
| 2026-04-18 05:37 | -35.55746 | 144.95023 | 313 ft | 89 kts | 242° |
| 2026-04-18 05:38 | -35.55942 | 144.94484 | 316 ft | 52 kts | 247° |
| 2026-04-18 05:38 | -35.56052 | 144.94179 | 317 ft | 26 kts | 246° |
| 2026-04-18 05:38 | -35.56095 | 144.94080 | 318 ft | 1 kts | 276° |
| 2026-04-18 05:38 | -35.56091 | 144.94078 | 318 ft | 2 kts | 340° |
| 2026-04-18 05:39 | -35.56066 | 144.94133 | 317 ft | 16 kts | 64° |
| 2026-04-18 05:39 | -35.55997 | 144.94330 | 317 ft | 32 kts | 65° |
| 2026-04-18 05:39 | -35.55903 | 144.94596 | 314 ft | 34 kts | 63° |
| 2026-04-18 05:39 | -35.55808 | 144.94854 | 311 ft | 33 kts | 66° |
| 2026-04-18 05:40 | -35.55752 | 144.95005 | 310 ft | 5 kts | 65° |
| 2026-04-18 05:40 | -35.55734 | 144.95048 | 311 ft | 6 kts | 60° |
| 2026-04-18 05:40 | -35.55698 | 144.95057 | 312 ft | 9 kts | 338° |
| 2026-04-18 05:40 | -35.55643 | 144.95028 | 313 ft | 8 kts | 338° |
| 2026-04-18 05:41 | -35.55591 | 144.95000 | 313 ft | 8 kts | 335° |
| 2026-04-18 05:41 | -35.55537 | 144.94969 | 313 ft | 9 kts | 335° |
| 2026-04-18 05:41 | -35.55505 | 144.94913 | 313 ft | 6 kts | 327° |
| 2026-04-18 05:41 | -35.55490 | 144.94919 | 313 ft | 1 kts | 51° |
| 2026-04-18 05:42 | -35.55489 | 144.94919 | 313 ft | 0 kts | 51° |